KBDR/BDR METAR and TAF weather

Enter ICAO airport designator
Station Type Date Time Source
KBDR METAR 2020/02/25 00:52 UTC NOAA

KBDR 250052Z 18004KT 10SM BKN095 07/02 A2998 RMK AO2 SLP151 T00720017


Station Type Date Time Source
KBDR Decoded METAR 2020/02/25 00:52 UTC NOAA

SIKORSKY MEMORIAL AIRPORT, CT, United States (KBDR) 41-10N 073-08W 7M
Feb 24, 2020 - 07:52 PM EST / 2020.02.25 0052 UTC
Wind: from the S (180 degrees) at 5 MPH (4 KT):0
Visibility: 10 mile(s):0
Sky conditions: mostly cloudy
Temperature: 45.0 F (7.2 C)
Dew Point: 35.1 F (1.7 C)
Relative Humidity: 68%
Pressure (altimeter): 29.98 in. Hg (1015 hPa)
ob: KBDR 250052Z 18004KT 10SM BKN095 07/02 A2998 RMK AO2 SLP151 T00720017
cycle: 1

Station Type Date Time Source
KBDR TAF 2020/02/24 22:36 UTC NOAA

TAF
AMD KBDR 242134Z 2422/2518 18005KT P6SM BKN250
TEMPO 2422/2423 11005KT
FM242300 18004KT P6SM BKN200
FM250300 VRB03KT P6SM OVC100
FM251300 07004KT P6SM SCT025 OVC060

Example: see airport list